Portada
METAR-TAF:

METAR-TAF

Aeroports :

Pamplona, Espanya

latitud: 42-46N, longitud: 001-38W, altitud: 459 m

Observació

L'informe es va fer fa 18 minuts, a les 02:30 UTC
Vent 2 kt del Sud/Sud-Est
Temperatura 2°C
Humitat 93%
Pressió 1034 hPa
Visibilitat 10 km o més
sense núvols per sota de 1500 mi sense presència de cumulonimbus.

METAR: LEPP 230230Z AUTO 16002KT CAVOK 02/01 Q1034

Hora: 03:48 (02:48 UTC)

Pronòstic

L'informe es va fer fa 48 minuts, a les 02:00 UTC
Pronòstic vàlid del 23 a les 03 UTC al 24 a les 03 UTC
Vent 3 kt amb direcció variable
Visibilitat 10 km o més
sense núvols per sota de 1500 mi sense presència de cumulonimbus.
Temporalment
l' 23 a les 16 UTC al 23 a les 21 UTC
Vent 10 kt del Nord/Nord-Oest

TAF: LEPP 230200Z 2303/2403 VRB03KT CAVOK TX20/2315Z TNM01/2306Z TEMPO 2316/2321 34010KT

Observacions i pronòstics meteorològics de més de 4000 aeroports (METAR i TAF).

Les estacions disponibles són els punts grocs i vermells al mapa.

Posi el ratolí al punt desitjat per veure el nom de l'estació.

Feu clic per veure les observacions i els pronòstics meteorològics.

Per canviar el mapa: feu clic els botons verds amb una creu de color negre per apropar; al botó verd amb un guió per allunyar la imatge; o en les fletxes verdes per a mapes adjacents.


METAR-TAF: